Time;durP1;ratioP1;P1;durP2;ratioP2;P2;SDS_P1;SDS_P2;PMS_P1;PMS_P2;Temp;Humidity;BMP_temperature;BMP_pressure;BME280_temperature;BME280_humidity;BME280_pressure;Samples;Min_cycle;Max_cycle;Signal;HPM_P1;HPM_P2
2022/12/12 00:00:00;;;;;;;;;;;1.00;99.90;;;;;;4989376;28;1142;-60
2022/12/12 00:02:26;;;;;;;;;;;0.80;99.90;;;;;;4989613;28;1083;-60
2022/12/12 00:04:55;;;;;;;;;;;0.80;99.90;;;;;;4988585;28;1343;-60
2022/12/12 00:07:20;;;;;;;;;;;1.30;99.90;;;;;;4989567;28;1127;-61
2022/12/12 00:09:46;;;;;;;;;;;0.80;99.90;;;;;;4995385;28;1907;-61
2022/12/12 00:12:12;;;;;;;;;;;0.80;99.90;;;;;;5000314;28;1053;-61
2022/12/12 00:14:37;;;;;;;;;;;0.80;99.90;;;;;;4990122;28;1268;-61
2022/12/12 00:17:03;;;;;;;;;;;1.20;99.90;;;;;;5005447;28;1124;-61
2022/12/12 00:19:28;;;;;;;;;;;0.80;99.90;;;;;;5006473;28;1139;-60
2022/12/12 00:21:54;;;;;;;;;;;1.10;99.90;;;;;;5013018;28;1118;-61
2022/12/12 00:24:20;;;;;;;;;;;0.80;99.90;;;;;;5012902;28;1161;-61
2022/12/12 00:26:46;;;;;;;;;;;0.80;99.90;;;;;;4979992;28;1042;-61
2022/12/12 00:29:12;;;;;;;;;;;0.80;99.90;;;;;;4993143;28;1887;-60
2022/12/12 00:31:38;;;;;;;;;;;0.80;99.90;;;;;;4992803;28;1314;-61
2022/12/12 00:34:03;;;;;;;;;;;0.80;99.90;;;;;;4992764;28;1112;-60
2022/12/12 00:36:29;;;;;;;;;;;0.80;99.90;;;;;;4993524;28;1217;-60
2022/12/12 00:38:55;;;;;;;;;;;0.80;99.90;;;;;;4992528;28;1653;-60
2022/12/12 00:41:21;;;;;;;;;;;1.00;99.90;;;;;;4992561;28;1139;-61
2022/12/12 00:43:47;;;;;;;;;;;0.80;99.90;;;;;;4993334;28;1099;-61
2022/12/12 00:46:14;;;;;;;;;;;1.00;99.90;;;;;;5012577;28;1106;-61
2022/12/12 00:48:40;;;;;;;;;;;0.90;99.90;;;;;;5011600;28;1930;-61
2022/12/12 00:51:07;;;;;;;;;;;0.90;99.90;;;;;;4995134;28;1099;-61
2022/12/12 00:53:33;;;;;;;;;;;0.80;99.90;;;;;;4978029;28;1147;-61
2022/12/12 00:55:59;;;;;;;;;;;0.80;99.90;;;;;;4992542;28;1229;-60
2022/12/12 00:58:25;;;;;;;;;;;0.70;99.90;;;;;;4993030;28;1084;-60
2022/12/12 01:00:51;;;;;;;;;;;0.70;99.90;;;;;;4992017;28;1285;-60
2022/12/12 01:03:17;;;;;;;;;;;1.80;99.90;;;;;;4998718;28;1083;-61
2022/12/12 01:05:45;;;;;;;;;;;0.70;99.90;;;;;;4992082;28;1284;-60
2022/12/12 01:08:11;;;;;;;;;;;0.60;99.90;;;;;;4992490;28;1985;-61
2022/12/12 01:10:36;;;;;;;;;;;0.70;99.90;;;;;;4993531;28;1233;-61
2022/12/12 01:13:02;;;;;;;;;;;0.60;99.90;;;;;;4994518;28;1133;-60
2022/12/12 01:15:28;;;;;;;;;;;0.60;99.90;;;;;;4992865;28;1229;-61
2022/12/12 01:17:53;;;;;;;;;;;0.50;99.90;;;;;;4992896;28;1281;-61
2022/12/12 01:20:21;;;;;;;;;;;0.50;99.90;;;;;;4992883;28;1241;-60
2022/12/12 01:22:47;;;;;;;;;;;0.40;99.90;;;;;;4982470;28;1351;-60
2022/12/12 01:25:13;;;;;;;;;;;0.80;99.90;;;;;;4993170;28;1221;-60
2022/12/12 01:27:39;;;;;;;;;;;0.40;99.90;;;;;;4992203;28;1261;-60
2022/12/12 01:30:05;;;;;;;;;;;0.40;99.90;;;;;;4990946;28;1927;-60
2022/12/12 01:32:30;;;;;;;;;;;0.40;99.90;;;;;;4993268;28;1249;-61
2022/12/12 01:34:56;;;;;;;;;;;0.40;99.90;;;;;;4993896;28;1230;-60
2022/12/12 01:37:22;;;;;;;;;;;0.40;99.90;;;;;;4990532;28;1298;-61
2022/12/12 01:39:47;;;;;;;;;;;0.50;99.90;;;;;;4991748;28;1418;-60
2022/12/12 01:42:14;;;;;;;;;;;0.50;99.90;;;;;;4992456;28;1261;-60
2022/12/12 01:44:41;;;;;;;;;;;0.50;99.90;;;;;;4998456;28;1320;-60
2022/12/12 01:47:06;;;;;;;;;;;0.50;99.90;;;;;;4993706;28;1313;-60
2022/12/12 01:49:33;;;;;;;;;;;0.50;99.90;;;;;;4991707;28;1973;-60
2022/12/12 01:52:01;;;;;;;;;;;0.50;99.90;;;;;;4991480;28;1272;-60
2022/12/12 01:54:31;;;;;;;;;;;0.50;99.90;;;;;;4991276;28;1094;-60
2022/12/12 01:56:59;;;;;;;;;;;0.50;99.90;;;;;;4994052;28;1186;-61
2022/12/12 01:59:25;;;;;;;;;;;1.10;99.90;;;;;;4987843;28;1162;-60
2022/12/12 02:01:51;;;;;;;;;;;0.60;99.90;;;;;;4991841;28;1222;-60
2022/12/12 02:04:19;;;;;;;;;;;0.60;99.90;;;;;;4991999;28;1198;-60
2022/12/12 02:06:44;;;;;;;;;;;0.50;99.90;;;;;;4991704;28;1186;-60
2022/12/12 02:09:11;;;;;;;;;;;0.50;99.90;;;;;;4990977;28;2022;-60
2022/12/12 02:11:43;;;;;;;;;;;0.50;99.90;;;;;;4989888;28;1242;-60
2022/12/12 02:14:08;;;;;;;;;;;0.80;99.90;;;;;;4997173;28;1280;-60
2022/12/12 02:16:50;;;;;;;;;;;0.50;99.90;;;;;;4992187;28;1245;-60
2022/12/12 02:19:16;;;;;;;;;;;0.50;99.90;;;;;;4989286;28;1242;-60
2022/12/12 02:21:49;;;;;;;;;;;0.60;99.90;;;;;;4992078;28;1281;-60
2022/12/12 02:24:14;;;;;;;;;;;0.90;99.90;;;;;;4990823;28;1233;-60
2022/12/12 02:27:13;;;;;;;;;;;0.50;99.90;;;;;;4990458;28;1229;-60
2022/12/12 02:29:47;;;;;;;;;;;0.60;99.90;;;;;;4990594;28;1983;-60
2022/12/12 02:32:19;;;;;;;;;;;0.50;99.90;;;;;;4992218;28;1265;-60
2022/12/12 02:34:50;;;;;;;;;;;0.60;99.90;;;;;;4994270;28;1230;-60
2022/12/12 02:37:22;;;;;;;;;;;0.50;99.90;;;;;;5000902;28;1302;-60
2022/12/12 02:40:06;;;;;;;;;;;0.50;99.90;;;;;;4989407;28;1301;-60
2022/12/12 02:42:40;;;;;;;;;;;0.50;99.90;;;;;;4990444;28;1242;-60
2022/12/12 02:45:10;;;;;;;;;;;0.50;99.90;;;;;;4991823;28;1188;-60
2022/12/12 02:47:38;;;;;;;;;;;0.60;99.90;;;;;;4989475;28;1107;-60
2022/12/12 02:50:06;;;;;;;;;;;0.50;99.90;;;;;;4990631;28;1981;-60
2022/12/12 02:52:33;;;;;;;;;;;0.50;99.90;;;;;;4981635;28;1257;-60
2022/12/12 02:54:58;;;;;;;;;;;0.60;99.90;;;;;;4990945;28;1201;-60
2022/12/12 02:57:25;;;;;;;;;;;0.60;99.90;;;;;;4989882;28;1182;-60
2022/12/12 02:59:59;;;;;;;;;;;0.60;99.90;;;;;;4992318;28;1305;-60
2022/12/12 03:02:33;;;;;;;;;;;0.50;99.90;;;;;;4987930;28;1163;-60
2022/12/12 03:07:56;;;;;;;;;;;0.60;99.90;;;;;;4988053;28;1350;-60
2022/12/12 03:10:29;;;;;;;;;;;0.50;99.90;;;;;;4988603;28;1989;-60
2022/12/12 03:12:59;;;;;;;;;;;0.50;99.90;;;;;;4989836;28;1261;-60
2022/12/12 03:15:26;;;;;;;;;;;0.80;99.90;;;;;;4991079;28;1418;-60
2022/12/12 03:18:07;;;;;;;;;;;0.50;99.90;;;;;;4989940;28;1197;-60
2022/12/12 03:20:43;;;;;;;;;;;0.50;99.90;;;;;;4990263;28;1308;-60
2022/12/12 03:23:18;;;;;;;;;;;0.50;99.90;;;;;;4989956;28;1182;-60
2022/12/12 03:25:49;;;;;;;;;;;0.50;99.90;;;;;;4994495;28;1257;-60
2022/12/12 03:28:15;;;;;;;;;;;0.50;99.90;;;;;;4991463;28;1973;-60
2022/12/12 03:30:45;;;;;;;;;;;0.50;99.90;;;;;;4989303;28;1250;-60
2022/12/12 03:33:17;;;;;;;;;;;0.50;99.90;;;;;;4980745;28;1152;-60
2022/12/12 03:35:44;;;;;;;;;;;0.90;99.90;;;;;;4988061;28;1187;-61
2022/12/12 03:38:15;;;;;;;;;;;0.50;99.90;;;;;;4992561;28;1352;-60
2022/12/12 03:40:45;;;;;;;;;;;0.50;99.90;;;;;;4989575;28;1305;-60
2022/12/12 03:43:13;;;;;;;;;;;0.50;99.90;;;;;;4988239;28;1270;-60
2022/12/12 03:45:46;;;;;;;;;;;0.50;99.90;;;;;;4987720;28;1214;-60
2022/12/12 03:48:15;;;;;;;;;;;0.50;99.90;;;;;;4991555;28;1906;-60
2022/12/12 03:50:44;;;;;;;;;;;0.60;99.90;;;;;;4990812;28;1240;-60
2022/12/12 03:53:14;;;;;;;;;;;0.60;99.90;;;;;;4989844;28;1213;-60
2022/12/12 03:55:44;;;;;;;;;;;0.60;99.90;;;;;;4989042;28;997;-60
2022/12/12 03:58:11;;;;;;;;;;;0.60;99.90;;;;;;4988348;28;1237;-60
2022/12/12 04:00:38;;;;;;;;;;;0.70;99.90;;;;;;4989805;28;1182;-60
2022/12/12 04:03:10;;;;;;;;;;;0.60;99.90;;;;;;4989973;28;1123;-60
2022/12/12 04:06:27;;;;;;;;;;;0.60;99.90;;;;;;4988468;28;1280;-60
2022/12/12 04:12:57;;;;;;;;;;;0.60;99.90;;;;;;4988053;28;1981;-60
2022/12/12 04:14:40;;;;;;;;;;;0.70;99.90;;;;;;4998232;28;1192;-60
2022/12/12 04:17:09;;;;;;;;;;;0.60;99.90;;;;;;4996645;28;1013;-60
2022/12/12 04:26:37;;;;;;;;;;;0.50;99.90;;;;;;4997572;28;1168;-60
2022/12/12 04:28:28;;;;;;;;;;;0.50;99.90;;;;;;5008706;28;1918;-60
2022/12/12 04:30:56;;;;;;;;;;;0.50;99.90;;;;;;5009124;28;1094;-60
2022/12/12 04:33:23;;;;;;;;;;;0.50;99.90;;;;;;5001938;28;1242;-60
2022/12/12 04:35:49;;;;;;;;;;;0.60;99.90;;;;;;4989094;28;1095;-60
2022/12/12 04:38:18;;;;;;;;;;;0.60;99.90;;;;;;4989348;28;1591;-60
2022/12/12 04:40:45;;;;;;;;;;;0.60;99.90;;;;;;4988782;28;1631;-60
2022/12/12 04:43:14;;;;;;;;;;;0.70;99.90;;;;;;4997119;28;1144;-60
2022/12/12 04:45:44;;;;;;;;;;;0.60;99.90;;;;;;5008993;28;1090;-60
2022/12/12 04:48:12;;;;;;;;;;;0.60;99.90;;;;;;5008141;28;1919;-60
2022/12/12 04:50:38;;;;;;;;;;;0.60;99.90;;;;;;4991635;28;1122;-60
2022/12/12 04:53:08;;;;;;;;;;;0.60;99.90;;;;;;4979303;28;1246;-60
2022/12/12 04:55:35;;;;;;;;;;;1.00;99.90;;;;;;4992091;28;1238;-60
2022/12/12 04:58:02;;;;;;;;;;;0.60;99.90;;;;;;4992046;28;1206;-60
2022/12/12 05:00:30;;;;;;;;;;;0.50;99.90;;;;;;4992245;28;1249;-60
2022/12/12 05:03:08;;;;;;;;;;;0.50;99.90;;;;;;4991334;28;1211;-60
2022/12/12 05:05:34;;;;;;;;;;;0.50;99.90;;;;;;4991690;28;1252;-61
2022/12/12 05:08:09;;;;;;;;;;;0.50;99.90;;;;;;4991328;28;1283;-61
2022/12/12 05:10:41;;;;;;;;;;;0.50;99.90;;;;;;4991020;28;1253;-61
2022/12/12 05:13:13;;;;;;;;;;;0.70;99.90;;;;;;4975389;28;1133;-61
2022/12/12 05:15:39;;;;;;;;;;;0.30;99.90;;;;;;5011980;28;1020;-61
2022/12/12 05:18:07;;;;;;;;;;;0.30;99.90;;;;;;5003634;28;1106;-61
2022/12/12 05:20:32;;;;;;;;;;;0.30;99.90;;;;;;5011883;28;1126;-61
2022/12/12 05:22:58;;;;;;;;;;;0.50;99.90;;;;;;5011574;28;1118;-61
2022/12/12 05:25:24;;;;;;;;;;;0.40;99.90;;;;;;5012138;28;1157;-60
2022/12/12 05:27:49;;;;;;;;;;;0.40;99.90;;;;;;5008895;28;1148;-61
2022/12/12 05:30:15;;;;;;;;;;;0.40;99.90;;;;;;5011147;28;1910;-61
2022/12/12 05:32:41;;;;;;;;;;;0.70;99.90;;;;;;5011869;28;1149;-61
2022/12/12 05:35:07;;;;;;;;;;;0.40;99.90;;;;;;5006557;28;1145;-61
2022/12/12 05:37:32;;;;;;;;;;;0.40;99.90;;;;;;5001121;28;1313;-61
2022/12/12 05:39:58;;;;;;;;;;;0.40;99.90;;;;;;4991835;28;1277;-61
2022/12/12 05:42:24;;;;;;;;;;;0.40;99.90;;;;;;4990937;28;1159;-60
2022/12/12 05:44:50;;;;;;;;;;;0.40;99.90;;;;;;4991941;28;1045;-60
2022/12/12 05:47:17;;;;;;;;;;;0.30;99.90;;;;;;4992229;28;1103;-61
2022/12/12 05:49:43;;;;;;;;;;;0.50;99.90;;;;;;4991151;28;1994;-60
2022/12/12 05:52:09;;;;;;;;;;;0.10;99.90;;;;;;4991447;28;1151;-61
2022/12/12 05:54:34;;;;;;;;;;;0.10;99.90;;;;;;4991186;28;1191;-61
2022/12/12 05:57:00;;;;;;;;;;;0.00;99.90;;;;;;4981676;28;1253;-61
2022/12/12 05:59:26;;;;;;;;;;;0.00;99.90;;;;;;4991249;28;1246;-60
2022/12/12 06:01:51;;;;;;;;;;;-0.10;99.90;;;;;;4993319;28;1163;-60
2022/12/12 06:04:17;;;;;;;;;;;-0.20;99.90;;;;;;5010282;28;1141;-61
2022/12/12 06:06:44;;;;;;;;;;;-0.20;99.90;;;;;;4995615;28;1337;-61
2022/12/12 06:09:10;;;;;;;;;;;-0.30;99.90;;;;;;4991421;28;1981;-61
2022/12/12 06:11:35;;;;;;;;;;;-0.30;99.90;;;;;;4992264;28;1155;-61
2022/12/12 06:14:01;;;;;;;;;;;-0.40;99.90;;;;;;5002988;28;1206;-61
2022/12/12 06:16:27;;;;;;;;;;;-0.40;99.90;;;;;;4991531;28;1103;-60
2022/12/12 06:18:53;;;;;;;;;;;-0.40;99.90;;;;;;4989974;28;1123;-61
2022/12/12 06:21:19;;;;;;;;;;;-0.40;99.90;;;;;;5006435;28;1142;-61
2022/12/12 06:23:45;;;;;;;;;;;-0.40;99.90;;;;;;5010705;28;1125;-61
2022/12/12 06:26:12;;;;;;;;;;;-0.40;99.90;;;;;;5009816;28;1094;-61
2022/12/12 06:28:39;;;;;;;;;;;-0.40;99.90;;;;;;5002170;28;1989;-61
2022/12/12 06:31:05;;;;;;;;;;;0.10;99.90;;;;;;4991930;28;1202;-61
2022/12/12 06:33:34;;;;;;;;;;;-0.50;99.90;;;;;;4991469;28;1153;-61
2022/12/12 06:36:02;;;;;;;;;;;-0.50;99.90;;;;;;4993391;28;1238;-61
2022/12/12 06:38:28;;;;;;;;;;;-0.40;99.90;;;;;;4990595;28;1337;-61
2022/12/12 06:40:54;;;;;;;;;;;-0.40;99.90;;;;;;4990722;28;1349;-61
2022/12/12 06:43:20;;;;;;;;;;;-0.10;99.90;;;;;;4990746;28;1246;-61
2022/12/12 06:45:45;;;;;;;;;;;-0.50;99.90;;;;;;4994065;28;1222;-61
2022/12/12 06:48:11;;;;;;;;;;;-0.50;99.90;;;;;;4990397;28;1276;-61
2022/12/12 06:50:38;;;;;;;;;;;-0.50;99.90;;;;;;4990775;28;1976;-61
2022/12/12 06:53:04;;;;;;;;;;;-0.50;99.90;;;;;;4989638;28;1272;-61
2022/12/12 06:55:30;;;;;;;;;;;-0.50;99.90;;;;;;4990862;28;1262;-61
2022/12/12 06:57:55;;;;;;;;;;;-0.50;99.90;;;;;;4992581;28;1249;-61
2022/12/12 07:00:21;;;;;;;;;;;-0.50;99.90;;;;;;4982832;28;1297;-61
2022/12/12 07:02:47;;;;;;;;;;;-0.60;99.90;;;;;;4990446;28;1190;-61
2022/12/12 07:05:12;;;;;;;;;;;-0.70;99.90;;;;;;4990463;28;1124;-61
2022/12/12 07:07:38;;;;;;;;;;;-0.20;99.90;;;;;;4991302;28;1218;-61
2022/12/12 07:10:04;;;;;;;;;;;-0.70;99.90;;;;;;4992001;28;1910;-61
2022/12/12 07:12:30;;;;;;;;;;;-0.70;99.90;;;;;;4994150;28;1185;-61
2022/12/12 07:14:55;;;;;;;;;;;-0.70;99.90;;;;;;4978446;28;1151;-61
2022/12/12 07:17:21;;;;;;;;;;;-0.80;99.90;;;;;;4990679;28;1094;-61
2022/12/12 07:19:47;;;;;;;;;;;-0.70;99.90;;;;;;4992164;28;1221;-61
2022/12/12 07:22:12;;;;;;;;;;;-0.70;99.90;;;;;;4989050;28;1237;-61
2022/12/12 07:24:38;;;;;;;;;;;-0.80;99.90;;;;;;4989896;28;1261;-61
2022/12/12 07:27:05;;;;;;;;;;;-0.90;99.90;;;;;;4989800;28;1293;-61
2022/12/12 07:29:31;;;;;;;;;;;-0.90;99.90;;;;;;4989873;28;1910;-61
2022/12/12 07:31:56;;;;;;;;;;;-0.90;99.90;;;;;;4999122;28;1167;-61
2022/12/12 07:34:22;;;;;;;;;;;-0.90;99.90;;;;;;5009309;28;1106;-61
2022/12/12 07:36:48;;;;;;;;;;;-0.90;99.90;;;;;;5009062;28;1118;-61
2022/12/12 07:39:13;;;;;;;;;;;-0.80;99.90;;;;;;4989672;28;1587;-61
2022/12/12 07:41:39;;;;;;;;;;;-1.00;99.90;;;;;;4989946;28;1201;-62
2022/12/12 07:44:05;;;;;;;;;;;-1.00;99.90;;;;;;4989851;28;1152;-62
2022/12/12 07:46:31;;;;;;;;;;;-0.90;99.90;;;;;;4989754;28;1210;-62
2022/12/12 07:48:56;;;;;;;;;;;-0.90;99.90;;;;;;4991971;28;1938;-62
2022/12/12 07:51:22;;;;;;;;;;;-0.70;99.90;;;;;;4989124;28;1241;-62
2022/12/12 07:53:48;;;;;;;;;;;-1.10;99.90;;;;;;4992131;28;1197;-62
2022/12/12 07:56:14;;;;;;;;;;;-1.00;99.90;;;;;;4994965;28;1270;-62
2022/12/12 07:58:40;;;;;;;;;;;-1.10;99.90;;;;;;4990262;28;1182;-61
2022/12/12 08:01:08;;;;;;;;;;;-1.00;99.90;;;;;;4989407;28;1241;-62
2022/12/12 08:03:33;;;;;;;;;;;-1.00;99.90;;;;;;4979878;28;1296;-62
2022/12/12 08:05:59;;;;;;;;;;;-1.00;99.90;;;;;;4988815;28;1303;-62
2022/12/12 08:08:25;;;;;;;;;;;-1.00;99.90;;;;;;4992616;28;1907;-62
2022/12/12 08:10:50;;;;;;;;;;;-0.90;99.90;;;;;;4988505;28;1210;-62
2022/12/12 08:13:16;;;;;;;;;;;-0.80;99.90;;;;;;4989825;28;1242;-62
2022/12/12 08:15:42;;;;;;;;;;;-0.70;99.90;;;;;;4988886;28;1078;-62
2022/12/12 08:18:08;;;;;;;;;;;-0.60;99.90;;;;;;4979866;28;1083;-62
2022/12/12 08:20:33;;;;;;;;;;;-0.50;99.90;;;;;;4989304;28;1206;-62
2022/12/12 08:22:59;;;;;;;;;;;-0.40;99.90;;;;;;4990393;28;1280;-62
2022/12/12 08:25:25;;;;;;;;;;;-0.30;99.90;;;;;;4990260;28;1236;-62
2022/12/12 08:27:50;;;;;;;;;;;-0.20;99.90;;;;;;4989830;28;1162;-62
2022/12/12 08:30:16;;;;;;;;;;;0.10;99.90;;;;;;4993187;28;1910;-62
2022/12/12 08:32:42;;;;;;;;;;;0.00;99.90;;;;;;4996446;28;1268;-62
2022/12/12 08:35:08;;;;;;;;;;;0.00;99.90;;;;;;5013099;28;1162;-62
2022/12/12 08:37:33;;;;;;;;;;;0.10;99.90;;;;;;5007113;28;1309;-61
2022/12/12 08:39:59;;;;;;;;;;;0.10;99.90;;;;;;4992275;28;1303;-62
2022/12/12 08:42:24;;;;;;;;;;;0.40;99.90;;;;;;5007745;28;1109;-62
2022/12/12 08:44:50;;;;;;;;;;;0.20;99.90;;;;;;5012666;28;1139;-62
2022/12/12 08:47:16;;;;;;;;;;;0.30;99.90;;;;;;5011718;28;1146;-62
2022/12/12 08:49:41;;;;;;;;;;;0.30;99.90;;;;;;4985255;28;1910;-62
2022/12/12 08:52:08;;;;;;;;;;;0.40;99.90;;;;;;4988368;28;1107;-62
2022/12/12 08:54:35;;;;;;;;;;;0.40;99.90;;;;;;4991973;28;1095;-62
2022/12/12 08:57:02;;;;;;;;;;;0.40;99.90;;;;;;4993022;28;1194;-62
2022/12/12 08:59:27;;;;;;;;;;;0.60;99.90;;;;;;4994879;28;1242;-62
2022/12/12 09:01:53;;;;;;;;;;;0.70;99.90;;;;;;4992425;28;1237;-62
2022/12/12 09:04:19;;;;;;;;;;;0.90;99.90;;;;;;4982499;28;1217;-62
2022/12/12 09:06:44;;;;;;;;;;;1.00;99.90;;;;;;4980737;28;1338;-62
2022/12/12 09:09:10;;;;;;;;;;;1.20;99.90;;;;;;4992945;28;1975;-62
2022/12/12 09:11:36;;;;;;;;;;;1.40;99.90;;;;;;4992592;28;1103;-62
2022/12/12 09:14:02;;;;;;;;;;;1.80;99.90;;;;;;4991868;28;1289;-62
2022/12/12 09:16:28;;;;;;;;;;;1.70;99.90;;;;;;4994263;28;1076;-62
2022/12/12 09:18:54;;;;;;;;;;;1.90;99.90;;;;;;5012171;28;1170;-62
2022/12/12 09:21:20;;;;;;;;;;;2.00;99.90;;;;;;4997307;28;1138;-62
2022/12/12 09:23:47;;;;;;;;;;;2.20;99.90;;;;;;4992360;28;1169;-62
2022/12/12 09:26:12;;;;;;;;;;;2.20;99.90;;;;;;4994028;28;1133;-62
2022/12/12 09:28:38;;;;;;;;;;;2.30;99.90;;;;;;5009794;28;1969;-62
2022/12/12 09:31:07;;;;;;;;;;;2.20;99.90;;;;;;4987833;28;3317;-62
2022/12/12 09:33:33;;;;;;;;;;;2.20;99.90;;;;;;4991313;28;1107;-62
2022/12/12 09:36:00;;;;;;;;;;;2.30;99.90;;;;;;4996999;28;1174;-62
2022/12/12 09:38:26;;;;;;;;;;;2.40;99.90;;;;;;4991032;28;3614;-62
2022/12/12 09:40:53;;;;;;;;;;;2.50;99.90;;;;;;4993110;28;1298;-62
2022/12/12 09:43:21;;;;;;;;;;;2.70;99.90;;;;;;4990998;28;3047;-62
2022/12/12 09:45:46;;;;;;;;;;;3.00;99.90;;;;;;4991439;28;1146;-62
2022/12/12 09:48:18;;;;;;;;;;;3.40;99.90;;;;;;4991910;28;1162;-62
2022/12/12 09:50:46;;;;;;;;;;;4.10;99.90;;;;;;4990450;28;1910;-62
2022/12/12 09:53:13;;;;;;;;;;;4.70;99.90;;;;;;5001213;28;1164;-62
2022/12/12 09:55:46;;;;;;;;;;;5.30;99.90;;;;;;5005596;28;3157;-62
2022/12/12 09:58:19;;;;;;;;;;;5.70;99.90;;;;;;5011323;28;1092;-62
2022/12/12 10:00:47;;;;;;;;;;;6.00;99.90;;;;;;4990047;28;1230;-62
2022/12/12 10:03:16;;;;;;;;;;;6.50;99.90;;;;;;4988052;28;1246;-62
2022/12/12 10:05:48;;;;;;;;;;;6.70;99.90;;;;;;4991833;28;1297;-62
2022/12/12 10:08:36;;;;;;;;;;;7.10;99.90;;;;;;4990811;28;1287;-62
2022/12/12 10:11:05;;;;;;;;;;;7.40;99.90;;;;;;4988933;28;1247;-62
2022/12/12 10:13:33;;;;;;;;;;;7.70;99.90;;;;;;5004976;28;1184;-62
2022/12/12 10:16:03;;;;;;;;;;;7.90;99.90;;;;;;4991183;28;1053;-62
2022/12/12 10:18:31;;;;;;;;;;;8.10;99.90;;;;;;4991432;28;1068;-62
2022/12/12 10:21:00;;;;;;;;;;;8.40;99.90;;;;;;5011284;28;1149;-62
2022/12/12 10:23:36;;;;;;;;;;;8.70;99.90;;;;;;5010524;28;971;-62
2022/12/12 10:26:15;;;;;;;;;;;9.00;99.90;;;;;;4996328;28;1270;-62
2022/12/12 10:28:41;;;;;;;;;;;9.50;99.90;;;;;;4990209;28;1903;-62
2022/12/12 10:31:17;;;;;;;;;;;9.90;99.90;;;;;;4989886;28;1088;-62
2022/12/12 10:33:55;;;;;;;;;;;10.30;99.50;;;;;;4985429;28;3705;-62
2022/12/12 10:36:44;;;;;;;;;;;10.50;98.40;;;;;;4989577;28;3599;-62
2022/12/12 10:39:28;;;;;;;;;;;10.80;98.10;;;;;;4992461;28;3145;-62
2022/12/12 10:42:00;;;;;;;;;;;11.20;97.00;;;;;;4989778;28;1410;-62
2022/12/12 10:44:45;;;;;;;;;;;11.40;96.30;;;;;;4974436;28;1127;-62
2022/12/12 10:47:11;;;;;;;;;;;11.50;94.40;;;;;;4987053;28;1103;-62
2022/12/12 10:49:38;;;;;;;;;;;11.10;93.50;;;;;;5000137;28;1969;-62
2022/12/12 10:52:05;;;;;;;;;;;10.80;93.20;;;;;;4990728;28;2600;-62
2022/12/12 10:54:35;;;;;;;;;;;10.50;93.60;;;;;;4982346;28;1212;-62
2022/12/12 10:57:13;;;;;;;;;;;10.50;94.30;;;;;;4988560;28;1343;-62
2022/12/12 10:59:41;;;;;;;;;;;10.30;94.10;;;;;;4988048;28;1105;-62
2022/12/12 11:02:26;;;;;;;;;;;9.60;93.30;;;;;;4989467;28;1614;-62
2022/12/12 11:04:58;;;;;;;;;;;7.60;95.30;;;;;;4973950;28;1736;-62
2022/12/12 11:07:24;;;;;;;;;;;7.20;96.50;;;;;;4987622;28;1424;-62
2022/12/12 11:09:49;;;;;;;;;;;6.20;98.80;;;;;;4989727;28;1942;-62
2022/12/12 11:12:15;;;;;;;;;;;5.50;99.90;;;;;;4989877;28;1375;-62
2022/12/12 11:14:47;;;;;;;;;;;5.10;99.90;;;;;;4981871;28;1227;-62
2022/12/12 11:17:18;;;;;;;;;;;4.80;99.90;;;;;;4989531;28;1172;-62
2022/12/12 11:19:45;;;;;;;;;;;4.50;99.90;;;;;;4987926;28;1261;-62
2022/12/12 11:22:14;;;;;;;;;;;4.30;99.90;;;;;;4988807;28;1309;-62
2022/12/12 11:24:43;;;;;;;;;;;4.20;99.90;;;;;;4990896;28;1211;-62
2022/12/12 11:27:17;;;;;;;;;;;4.30;99.90;;;;;;4981060;28;1217;-62
2022/12/12 11:29:44;;;;;;;;;;;4.20;99.90;;;;;;4987746;28;1962;-62
2022/12/12 11:32:13;;;;;;;;;;;4.00;99.90;;;;;;4990071;28;1119;-62
2022/12/12 11:34:42;;;;;;;;;;;3.90;99.90;;;;;;5007702;28;1193;-62
2022/12/12 11:37:13;;;;;;;;;;;3.80;99.90;;;;;;5007491;28;1293;-62
2022/12/12 11:39:41;;;;;;;;;;;3.80;99.90;;;;;;4989427;28;1431;-62
2022/12/12 11:42:13;;;;;;;;;;;3.80;99.90;;;;;;4989325;28;1087;-62
2022/12/12 11:44:39;;;;;;;;;;;3.90;99.90;;;;;;4989733;28;1099;-62
2022/12/12 11:47:20;;;;;;;;;;;3.90;99.90;;;;;;4989811;28;1075;-62
2022/12/12 11:49:46;;;;;;;;;;;3.80;99.90;;;;;;4998526;28;1971;-62
2022/12/12 11:52:16;;;;;;;;;;;3.80;99.90;;;;;;4989447;28;1103;-62
2022/12/12 11:54:42;;;;;;;;;;;3.90;99.90;;;;;;4989394;28;1154;-62
2022/12/12 11:57:22;;;;;;;;;;;3.90;99.90;;;;;;5004888;28;1167;-62
2022/12/12 11:59:57;;;;;;;;;;;3.80;99.90;;;;;;5009015;28;1111;-62
2022/12/12 12:02:29;;;;;;;;;;;3.70;99.90;;;;;;5008682;28;1015;-62
2022/12/12 12:05:03;;;;;;;;;;;3.70;99.90;;;;;;5003867;28;1176;-62
2022/12/12 12:07:34;;;;;;;;;;;3.60;99.90;;;;;;4993109;28;1209;-62
2022/12/12 12:10:10;;;;;;;;;;;3.60;99.90;;;;;;4990636;28;1910;-62
2022/12/12 12:12:52;;;;;;;;;;;3.60;99.90;;;;;;4990403;28;3949;-62
2022/12/12 12:15:36;;;;;;;;;;;3.90;99.90;;;;;;4992581;28;3537;-62
2022/12/12 12:18:12;;;;;;;;;;;4.30;99.90;;;;;;4991786;28;3617;-62
2022/12/12 12:20:51;;;;;;;;;;;4.80;99.90;;;;;;4992729;28;1164;-62
2022/12/12 12:23:22;;;;;;;;;;;5.10;99.90;;;;;;4993883;28;1174;-62
2022/12/12 12:25:52;;;;;;;;;;;5.10;99.90;;;;;;4992540;28;1407;-62
2022/12/12 12:28:31;;;;;;;;;;;5.10;99.90;;;;;;4992346;28;1241;-62
2022/12/12 12:31:05;;;;;;;;;;;5.20;99.90;;;;;;5001109;28;1242;-62
2022/12/12 12:33:31;;;;;;;;;;;5.50;99.90;;;;;;5010858;28;1213;-62
2022/12/12 12:36:08;;;;;;;;;;;6.40;99.90;;;;;;5012890;28;1150;-62
2022/12/12 12:38:43;;;;;;;;;;;7.40;99.90;;;;;;4998252;28;1590;-63
2022/12/12 12:41:19;;;;;;;;;;;8.20;99.90;;;;;;4990531;28;1080;-63
2022/12/12 12:44:01;;;;;;;;;;;8.90;99.70;;;;;;4992987;28;1131;-62
2022/12/12 12:46:34;;;;;;;;;;;9.60;98.00;;;;;;4992534;28;1115;-63
2022/12/12 12:49:05;;;;;;;;;;;10.20;96.00;;;;;;4977646;28;1915;-63
2022/12/12 12:51:34;;;;;;;;;;;10.20;94.40;;;;;;5011665;28;1142;-63
2022/12/12 12:54:03;;;;;;;;;;;10.20;93.90;;;;;;5000729;28;1680;-63
2022/12/12 12:56:30;;;;;;;;;;;10.10;92.00;;;;;;4992828;28;1206;-63
2022/12/12 12:58:58;;;;;;;;;;;10.10;92.90;;;;;;4995974;28;1178;-63
2022/12/12 13:01:28;;;;;;;;;;;10.40;92.60;;;;;;4994840;28;1100;-63
2022/12/12 13:03:55;;;;;;;;;;;11.00;91.50;;;;;;4999423;28;1070;-62
2022/12/12 13:06:23;;;;;;;;;;;11.50;90.50;;;;;;4987770;28;1128;-61
2022/12/12 13:08:56;;;;;;;;;;;11.30;88.30;;;;;;4994460;28;1965;-61
2022/12/12 13:11:26;;;;;;;;;;;10.50;89.80;;;;;;4992564;28;1245;-61
2022/12/12 13:13:53;;;;;;;;;;;9.50;90.20;;;;;;4991984;28;1250;-61
2022/12/12 13:16:21;;;;;;;;;;;8.90;91.10;;;;;;4979468;28;1250;-61
2022/12/12 13:18:49;;;;;;;;;;;8.50;92.30;;;;;;5000279;28;1044;-61
2022/12/12 13:21:17;;;;;;;;;;;8.00;93.10;;;;;;4973667;28;3698;-61
2022/12/12 13:24:00;;;;;;;;;;;7.40;94.20;;;;;;4991729;28;1091;-61
2022/12/12 13:26:33;;;;;;;;;;;7.10;95.20;;;;;;4999574;28;3648;-61
2022/12/12 13:29:03;;;;;;;;;;;7.10;96.40;;;;;;4991744;28;1985;-61
2022/12/12 13:31:38;;;;;;;;;;;7.20;96.40;;;;;;4992294;28;1083;-61
2022/12/12 13:34:06;;;;;;;;;;;7.50;96.30;;;;;;5004458;28;1049;-61
2022/12/12 13:36:33;;;;;;;;;;;7.80;95.60;;;;;;4989341;28;1163;-61
2022/12/12 13:39:00;;;;;;;;;;;7.90;95.50;;;;;;4991669;28;3409;-61
2022/12/12 13:41:26;;;;;;;;;;;8.40;94.70;;;;;;4990830;28;1123;-61
2022/12/12 13:43:56;;;;;;;;;;;8.90;93.40;;;;;;4991088;28;1296;-61
2022/12/12 13:46:23;;;;;;;;;;;9.00;92.80;;;;;;4990825;28;1155;-61
2022/12/12 13:48:58;;;;;;;;;;;8.50;92.70;;;;;;4993656;28;1906;-62
2022/12/12 13:51:26;;;;;;;;;;;8.00;93.30;;;;;;4982957;28;1193;-61
2022/12/12 13:54:18;;;;;;;;;;;8.00;94.40;;;;;;4990951;28;1079;-61
2022/12/12 13:56:45;;;;;;;;;;;8.00;94.00;;;;;;4990434;28;1238;-61
2022/12/12 13:59:30;;;;;;;;;;;7.60;94.30;;;;;;4991302;28;1131;-61
2022/12/12 14:01:58;;;;;;;;;;;7.10;94.50;;;;;;4990627;28;1166;-61
2022/12/12 14:04:24;;;;;;;;;;;6.50;94.90;;;;;;4990671;28;1068;-60
2022/12/12 14:07:04;;;;;;;;;;;5.90;96.60;;;;;;4991657;28;1018;-61
2022/12/12 14:09:36;;;;;;;;;;;5.40;97.80;;;;;;4992673;28;1907;-61
2022/12/12 14:12:03;;;;;;;;;;;4.90;98.90;;;;;;4996970;28;1139;-61
2022/12/12 14:14:30;;;;;;;;;;;4.50;99.90;;;;;;4999074;28;1161;-60
2022/12/12 14:16:56;;;;;;;;;;;4.10;99.90;;;;;;4972543;28;1119;-60
2022/12/12 14:19:25;;;;;;;;;;;3.90;99.90;;;;;;4973615;28;1150;-60
2022/12/12 14:21:51;;;;;;;;;;;3.70;99.90;;;;;;4991587;28;1095;-61
2022/12/12 14:24:34;;;;;;;;;;;3.50;99.90;;;;;;4990672;28;1083;-61
2022/12/12 14:27:01;;;;;;;;;;;3.30;99.90;;;;;;4999076;28;1128;-63
2022/12/12 14:29:27;;;;;;;;;;;3.20;99.90;;;;;;5011004;28;1918;-62
2022/12/12 14:32:12;;;;;;;;;;;3.10;99.90;;;;;;4990757;28;1147;-63
2022/12/12 14:34:41;;;;;;;;;;;2.90;99.90;;;;;;4991047;28;1230;-63
2022/12/12 14:37:25;;;;;;;;;;;2.80;99.90;;;;;;4987486;28;1189;-63
2022/12/12 14:40:17;;;;;;;;;;;2.60;99.90;;;;;;4989431;28;1349;-62
2022/12/12 14:42:48;;;;;;;;;;;2.40;99.90;;;;;;4990491;28;1238;-62
2022/12/12 14:45:23;;;;;;;;;;;2.20;99.90;;;;;;5001481;28;1101;-62
2022/12/12 14:48:06;;;;;;;;;;;2.10;99.90;;;;;;4993075;28;1138;-62
2022/12/12 14:50:32;;;;;;;;;;;2.00;99.90;;;;;;5010249;28;1910;-62
2022/12/12 14:52:59;;;;;;;;;;;1.80;99.90;;;;;;5001102;28;1140;-64
2022/12/12 14:55:24;;;;;;;;;;;1.70;99.90;;;;;;5005503;28;1067;-63
2022/12/12 14:57:50;;;;;;;;;;;1.60;99.90;;;;;;5009256;28;1165;-63
2022/12/12 15:00:18;;;;;;;;;;;1.50;99.90;;;;;;5001772;28;1051;-63
2022/12/12 15:02:47;;;;;;;;;;;1.40;99.90;;;;;;4998126;28;1222;-63